Main page
METAR-TAF:

METAR-TAF

Airports :

Le Touquet – Côte d'Opale Airport

Le Touquet, France

latitude: 50-30-53N, longitude: 001-37-39E, elevation: 6 m

Current weather observation

The report was made 31 minutes ago, at 06:00 UTC
Wind 9 kt from the West/Southwest, varying between South/Southwest and West
Temperature 12°C
Humidity 94%
Pressure 995 hPa
Visibility 10 km or more

METAR: LFAT 050600Z AUTO 25009KT 210V280 9999 BKN010/// OVC080/// ///TCU 12/11 Q0995

Time: 08:31 (06:31 UTC)


TAF: missing

Weather observations and forecasts of more than 4000 airports (METAR and TAF reports).

The available stations are represented by yellow and red dots on the map.

Hover mouse over dot to see the name of the station.

Then click to see weather observations and forecasts.

To change the map : click on the green buttons with a black cross to zoom in, on the green button with a dash to zoom out, or on the green arrows for adjacent maps.


METAR-TAF: